Etusivu
METAR-TAF:

METAR-TAF

Lentoasemat :

Sindal, Tanska

Leveyspiiri: 57-30N, Pituuspiiri: 010-13E, korkeus merenpinnasta: 28 m

Tämänhetkinen sää

Tämä raportti tehtiin 3 tuntia ja 23 minuuttia sitten, kello 13.50 UTC
Tuuli 2 kn etelästä
Lämpötila 7°C
Kosteus 87%
Ilmanpaine 1022 hPa
Näkyvyys 10 km tai enemmän
ei pilviä alle 1500 m:ssä eikä cumulonimbus-pilviä

METAR: EKSN 271350Z 17002KT CAVOK 07/05 Q1022

Aika: 18:13 (17:13 UTC)

Sääennuste

Tämä raportti tehtiin 5 tuntia ja 13 minuuttia sitten, kello 12.00 UTC
Ennuste voimassa 27. päivästä klo 12 UTC - 27. päivään klo 16 UTC
Tuuli 3 kn etelästä
Näkyvyys 10 km tai enemmän
ei pilviä alle 1500 m:ssä eikä cumulonimbus-pilviä

TAF: EKSN 271200Z 2712/2716 17003KT CAVOK

Säähavainnot ja -ennusteet yli 4000 lentoasemalta (METAR- ja TAF-raportit).

Käytössä olevat sääasemat on merkitty karttaan keltaisilla ja punaisilla pisteillä.

Aseta hiiri pisteen päälle nähdäksesi sääaseman nimen.

Klikkaa sitten nähdäksesi säähavainnot ja -ennusteet.

Kartan vaihtaminen: klikkaa mustalla rastilla varustettuja vihreitä pisteitä, niin voit zoomata sisään; viivalla varustettua vihreää pistettä, niin voit zoomata ulos tai vihreitä nuolia, niin pääset viereisille kartoille.


METAR-TAF: